createdAt,value
2018-03-16T00:02:19.831Z,7.63
2018-03-16T00:07:22.527Z,8.93
2018-03-16T00:09:51.600Z,8.77
2018-03-16T00:12:19.912Z,6.40
2018-03-16T00:14:48.948Z,6.00
2018-03-16T00:17:17.259Z,7.23
2018-03-16T00:19:45.536Z,5.83
2018-03-16T00:25:18.896Z,5.93
2018-03-16T00:27:47.903Z,9.30
2018-03-16T00:30:16.159Z,7.77
2018-03-16T00:32:44.453Z,10.43
2018-03-16T00:35:12.716Z,8.57
2018-03-16T00:37:41.025Z,7.73
2018-03-16T00:40:09.268Z,3.17
2018-03-16T00:42:37.550Z,4.90
2018-03-16T00:45:05.810Z,3.73
2018-03-16T00:47:34.066Z,3.00
2018-03-16T00:50:03.088Z,2.13
2018-03-16T00:52:31.376Z,3.63
2018-03-16T00:54:59.608Z,1.80
2018-03-16T00:57:27.887Z,2.50
2018-03-16T00:59:56.194Z,1.93
2018-03-16T01:02:24.458Z,3.40
2018-03-16T01:04:52.710Z,7.57
2018-03-16T01:07:21.753Z,2.80
2018-03-16T01:09:50.007Z,6.23
2018-03-16T01:12:18.273Z,3.70
2018-03-16T01:14:47.298Z,4.40
2018-03-16T01:17:15.555Z,3.10
2018-03-16T01:19:43.805Z,1.53
2018-03-16T01:22:12.067Z,1.97
2018-03-16T01:24:40.349Z,3.00
2018-03-16T01:27:08.610Z,3.53
2018-03-16T01:29:36.940Z,1.90
2018-03-16T01:34:39.753Z,1.53
2018-03-16T01:37:08.030Z,3.87
2018-03-16T01:39:36.301Z,1.90
2018-03-16T01:42:04.588Z,1.90
2018-03-16T01:44:32.860Z,1.10
2018-03-16T01:47:01.134Z,3.43
2018-03-16T01:49:29.413Z,2.27
2018-03-16T01:51:57.648Z,1.67
2018-03-16T01:54:25.903Z,1.57
2018-03-16T01:56:54.171Z,1.30
2018-03-16T01:59:22.494Z,2.23
2018-03-16T02:01:50.757Z,2.57
2018-03-16T02:04:19.016Z,1.20
2018-03-16T02:06:47.264Z,1.00
2018-03-16T02:09:15.514Z,1.40
2018-03-16T02:11:43.788Z,1.97
2018-03-16T02:14:12.042Z,1.53
2018-03-16T02:16:41.103Z,1.87
2018-03-16T02:19:09.349Z,3.83
2018-03-16T02:21:37.893Z,3.43
2018-03-16T02:24:06.958Z,1.20
2018-03-16T02:26:35.213Z,2.03
2018-03-16T02:29:03.483Z,2.50
2018-03-16T02:31:31.788Z,1.20
2018-03-16T02:34:00.026Z,2.77
2018-03-16T02:36:28.275Z,1.30
2018-03-16T02:38:56.545Z,4.20
2018-03-16T02:41:24.796Z,3.80
2018-03-16T02:43:53.064Z,5.93
2018-03-16T02:46:21.304Z,3.47
2018-03-16T02:48:49.557Z,1.63
2018-03-16T02:51:17.827Z,2.23
2018-03-16T02:53:46.101Z,3.20
2018-03-16T02:56:15.113Z,4.53
2018-03-16T02:58:43.381Z,5.00
2018-03-16T03:01:11.652Z,6.27
2018-03-16T03:03:39.920Z,4.63
2018-03-16T03:06:08.924Z,3.70
2018-03-16T03:08:37.174Z,6.07
2018-03-16T03:11:06.193Z,4.70
2018-03-16T03:13:34.450Z,3.43
2018-03-16T03:16:03.478Z,1.60
2018-03-16T03:18:31.711Z,2.83
2018-03-16T03:21:00.739Z,2.00
2018-03-16T03:23:28.978Z,1.87
2018-03-16T03:25:57.232Z,1.47
2018-03-16T03:28:25.475Z,2.10
2018-03-16T03:30:53.737Z,1.73
2018-03-16T03:33:21.974Z,1.23
2018-03-16T03:35:50.238Z,3.27
2018-03-16T03:38:18.496Z,2.27
2018-03-16T03:40:46.746Z,1.27
2018-03-16T03:43:15.008Z,1.57
2018-03-16T03:45:43.260Z,1.13
2018-03-16T03:48:11.531Z,2.73
2018-03-16T03:50:39.781Z,1.23
2018-03-16T03:53:08.061Z,2.87
2018-03-16T03:55:36.297Z,3.13
2018-03-16T03:58:04.552Z,2.20
2018-03-16T04:00:33.569Z,1.47
2018-03-16T04:03:01.873Z,2.20
2018-03-16T04:05:30.823Z,1.30
2018-03-16T04:07:59.079Z,1.63
2018-03-16T04:10:27.336Z,1.67
2018-03-16T04:12:55.579Z,3.00
2018-03-16T04:15:23.848Z,0.87
2018-03-16T04:17:52.100Z,2.47
2018-03-16T04:20:21.128Z,3.93
2018-03-16T04:22:49.384Z,1.70
2018-03-16T04:25:17.663Z,2.40
2018-03-16T04:27:45.926Z,3.33
2018-03-16T04:30:14.947Z,4.20
2018-03-16T04:32:43.218Z,1.50
2018-03-16T04:35:11.463Z,3.20
2018-03-16T04:37:40.488Z,2.13
2018-03-16T04:40:08.727Z,3.53
2018-03-16T04:42:37.757Z,4.50
2018-03-16T04:45:06.003Z,2.87
2018-03-16T04:47:34.253Z,3.43
2018-03-16T04:50:02.533Z,3.00
2018-03-16T04:52:30.775Z,1.20
2018-03-16T04:54:59.021Z,1.43
2018-03-16T04:57:27.300Z,1.73
2018-03-16T04:59:55.547Z,2.20
2018-03-16T05:02:24.574Z,1.30
2018-03-16T05:04:52.872Z,3.40
2018-03-16T05:07:21.116Z,1.80
2018-03-16T05:09:49.371Z,2.90
2018-03-16T05:12:18.445Z,2.13
2018-03-16T05:14:46.651Z,3.57
2018-03-16T05:17:15.657Z,6.33
2018-03-16T05:19:43.929Z,4.97
2018-03-16T05:22:12.958Z,4.23
2018-03-16T05:24:41.232Z,6.73
2018-03-16T05:27:09.472Z,3.53
2018-03-16T05:29:37.743Z,2.03
2018-03-16T05:32:06.744Z,5.33
2018-03-16T05:34:35.007Z,3.10
2018-03-16T05:37:04.020Z,5.53
2018-03-16T05:39:32.265Z,3.93
2018-03-16T05:42:01.275Z,2.57
2018-03-16T05:44:29.524Z,3.47
2018-03-16T05:46:57.785Z,2.33
2018-03-16T05:49:26.033Z,2.27
2018-03-16T05:51:54.299Z,2.27
2018-03-16T05:54:22.557Z,3.80
2018-03-16T05:56:50.807Z,5.07
2018-03-16T05:59:19.117Z,5.50
2018-03-16T06:01:48.133Z,5.07
2018-03-16T06:04:16.400Z,4.93
2018-03-16T06:06:44.650Z,5.90
2018-03-16T06:09:13.669Z,2.70
2018-03-16T06:11:41.915Z,3.57
2018-03-16T06:14:10.950Z,6.47
2018-03-16T06:16:39.208Z,8.73
2018-03-16T06:19:07.534Z,4.13
2018-03-16T06:21:35.758Z,5.53
2018-03-16T06:24:04.008Z,4.07
2018-03-16T06:26:33.114Z,5.67
2018-03-16T06:29:01.353Z,3.77
2018-03-16T06:31:29.646Z,4.57
2018-03-16T06:33:58.663Z,5.07
2018-03-16T06:36:26.953Z,3.27
2018-03-16T06:38:55.961Z,3.03
2018-03-16T06:41:24.269Z,4.13
2018-03-16T06:43:52.507Z,5.77
2018-03-16T06:46:20.780Z,5.87
2018-03-16T06:48:49.022Z,3.23
2018-03-16T06:51:18.031Z,3.93
2018-03-16T06:53:46.326Z,6.17
2018-03-16T06:56:14.583Z,4.93
2018-03-16T06:58:42.857Z,3.73
2018-03-16T07:01:11.184Z,2.40
2018-03-16T07:03:39.424Z,2.47
2018-03-16T07:06:07.671Z,3.67
2018-03-16T07:08:36.723Z,3.33
2018-03-16T07:11:04.972Z,2.37
2018-03-16T07:13:33.227Z,5.57
2018-03-16T07:16:01.476Z,5.20
2018-03-16T07:18:29.741Z,3.00
2018-03-16T07:20:57.984Z,2.80
2018-03-16T07:23:26.250Z,4.60
2018-03-16T07:25:54.510Z,4.47
2018-03-16T07:28:23.657Z,4.23
2018-03-16T07:30:51.917Z,3.07
2018-03-16T07:33:20.168Z,4.30
2018-03-16T07:35:48.424Z,4.33
2018-03-16T07:38:17.450Z,4.40
2018-03-16T07:40:45.734Z,2.87
2018-03-16T07:43:13.981Z,4.63
2018-03-16T07:45:48.010Z,4.53
2018-03-16T07:48:16.273Z,8.57
2018-03-16T07:50:45.306Z,8.87
2018-03-16T07:53:13.548Z,5.23
2018-03-16T07:55:41.855Z,6.20
2018-03-16T07:58:10.650Z,6.07
2018-03-16T08:00:40.362Z,7.83
2018-03-16T08:03:08.705Z,3.93
2018-03-16T08:05:36.960Z,5.30
2018-03-16T08:08:05.211Z,2.93
2018-03-16T08:10:33.479Z,2.43
2018-03-16T08:13:01.797Z,1.67
2018-03-16T08:15:30.802Z,8.10
2018-03-16T08:17:59.059Z,7.47
2018-03-16T08:20:28.106Z,4.53
2018-03-16T08:22:56.355Z,3.93
2018-03-16T08:25:24.760Z,3.23
2018-03-16T08:27:53.001Z,2.73
2018-03-16T08:30:22.724Z,3.57
2018-03-16T08:32:50.996Z,4.80
2018-03-16T08:35:19.277Z,1.93
2018-03-16T08:37:47.535Z,1.83
2018-03-16T08:40:15.821Z,2.53
2018-03-16T08:42:44.113Z,4.77
2018-03-16T08:45:12.400Z,3.60
2018-03-16T08:47:40.668Z,2.53
2018-03-16T08:50:08.927Z,3.83
2018-03-16T08:52:37.200Z,7.93
2018-03-16T08:55:05.455Z,6.57
2018-03-16T08:57:34.464Z,8.47
2018-03-16T09:00:02.748Z,4.50
2018-03-16T09:02:31.013Z,4.73
2018-03-16T09:04:59.304Z,2.60
2018-03-16T09:07:27.554Z,6.10
2018-03-16T09:09:56.573Z,4.13
2018-03-16T09:12:25.671Z,8.03
2018-03-16T09:14:53.978Z,9.57
2018-03-16T09:17:22.354Z,9.93
2018-03-16T09:19:50.631Z,7.27
2018-03-16T09:22:18.907Z,11.60
2018-03-16T09:24:47.157Z,9.17
2018-03-16T09:27:15.487Z,10.33
2018-03-16T09:29:43.737Z,7.20
2018-03-16T09:32:12.009Z,6.67
2018-03-16T09:34:40.262Z,6.27
2018-03-16T09:37:08.509Z,4.83
2018-03-16T09:39:36.777Z,5.57
2018-03-16T09:42:05.071Z,5.23
2018-03-16T09:44:33.356Z,4.57
2018-03-16T09:47:01.626Z,4.97
2018-03-16T09:49:29.888Z,7.87
2018-03-16T09:51:58.183Z,9.20
2018-03-16T09:54:26.456Z,9.83
2018-03-16T09:56:55.484Z,8.13
2018-03-16T09:59:23.762Z,12.00
2018-03-16T10:01:52.037Z,7.05
2018-03-16T10:04:21.108Z,16.33
2018-03-16T10:06:49.544Z,10.23
2018-03-16T10:09:18.576Z,5.93
2018-03-16T10:11:46.857Z,5.77
2018-03-16T10:14:15.113Z,11.03
2018-03-16T10:16:43.392Z,9.13
2018-03-16T10:19:11.738Z,6.87
2018-03-16T10:21:39.994Z,7.07
2018-03-16T10:24:08.289Z,14.03
2018-03-16T10:26:36.546Z,6.93
2018-03-16T10:29:04.813Z,7.83
2018-03-16T10:31:33.065Z,15.93
2018-03-16T10:34:01.363Z,11.63
2018-03-16T10:36:29.643Z,6.63
2018-03-16T10:38:58.124Z,8.07
2018-03-16T10:41:26.452Z,8.40
2018-03-16T10:43:55.495Z,11.03
2018-03-16T10:46:23.776Z,6.77
2018-03-16T10:48:52.082Z,6.80
2018-03-16T10:51:20.309Z,10.53
2018-03-16T10:53:48.597Z,6.97
2018-03-16T10:56:16.888Z,8.37
2018-03-16T10:58:45.139Z,9.33
2018-03-16T11:01:18.528Z,6.17
2018-03-16T11:03:50.639Z,7.87
2018-03-16T11:06:24.598Z,11.10
2018-03-16T11:08:52.880Z,8.43
2018-03-16T11:11:21.142Z,7.97
2018-03-16T11:13:49.440Z,6.87
2018-03-16T11:16:17.706Z,7.73
2018-03-16T11:18:45.970Z,8.27
2018-03-16T11:21:14.261Z,7.80
2018-03-16T11:23:42.516Z,5.63
2018-03-16T11:26:10.778Z,4.93
2018-03-16T11:28:39.857Z,6.20
2018-03-16T11:31:09.049Z,9.03
2018-03-16T11:33:37.346Z,6.27
2018-03-16T11:36:05.600Z,8.77
2018-03-16T11:38:33.946Z,5.57
2018-03-16T11:41:02.213Z,5.93
2018-03-16T11:43:30.525Z,4.93
2018-03-16T11:45:58.804Z,5.87
2018-03-16T11:48:27.099Z,6.37
2018-03-16T11:50:55.353Z,6.63
2018-03-16T11:53:23.604Z,5.87
2018-03-16T11:55:51.897Z,6.80
2018-03-16T11:58:20.140Z,9.03
2018-03-16T12:00:48.409Z,5.60
2018-03-16T12:03:16.684Z,3.90
2018-03-16T12:05:45.021Z,6.00
2018-03-16T12:08:13.278Z,10.83
2018-03-16T12:10:41.539Z,5.97
2018-03-16T12:13:09.813Z,5.27
2018-03-16T12:15:38.065Z,3.07
2018-03-16T12:18:06.352Z,8.50
2018-03-16T12:20:34.599Z,5.80
2018-03-16T12:23:03.652Z,5.83
2018-03-16T12:25:31.923Z,5.83
2018-03-16T12:28:00.196Z,3.97
2018-03-16T12:30:28.439Z,8.53
2018-03-16T12:32:56.720Z,3.90
2018-03-16T12:35:25.085Z,9.00
2018-03-16T12:37:53.318Z,11.67
2018-03-16T12:40:21.617Z,4.40
2018-03-16T12:42:49.835Z,1.90
2018-03-16T12:45:18.133Z,2.93
2018-03-16T12:47:46.409Z,11.30
2018-03-16T12:50:14.656Z,9.50
2018-03-16T12:52:42.929Z,5.30
2018-03-16T12:55:11.174Z,5.57
2018-03-16T12:57:40.228Z,5.23
2018-03-16T13:00:09.674Z,11.00
2018-03-16T13:02:37.911Z,4.33
2018-03-16T13:05:06.177Z,4.03
2018-03-16T13:07:34.462Z,9.13
2018-03-16T13:10:02.751Z,3.60
2018-03-16T13:12:31.061Z,6.60
2018-03-16T13:15:00.125Z,3.77
2018-03-16T13:17:28.462Z,5.07
2018-03-16T13:19:56.780Z,4.90
2018-03-16T13:22:25.090Z,3.10
2018-03-16T13:24:54.160Z,3.27
2018-03-16T13:27:22.487Z,5.73
2018-03-16T13:29:50.852Z,5.23
2018-03-16T13:32:19.100Z,11.27
2018-03-16T13:34:48.150Z,5.13
2018-03-16T13:37:16.422Z,5.27
2018-03-16T13:39:44.677Z,4.20
2018-03-16T13:42:12.979Z,5.33
2018-03-16T13:44:41.264Z,7.93
2018-03-16T13:47:09.587Z,6.17
2018-03-16T13:49:37.847Z,6.47
2018-03-16T13:52:06.129Z,7.67
2018-03-16T13:54:35.196Z,5.77
2018-03-16T13:57:03.462Z,3.93
2018-03-16T13:59:31.758Z,10.87
2018-03-16T14:02:00.064Z,5.40
2018-03-16T14:04:28.328Z,3.77
2018-03-16T14:06:57.370Z,5.20
2018-03-16T14:09:25.624Z,5.80
2018-03-16T14:11:53.971Z,5.70
2018-03-16T14:14:23.010Z,4.03
2018-03-16T14:16:51.264Z,5.83
2018-03-16T14:19:19.548Z,8.20
2018-03-16T14:21:47.788Z,5.13
2018-03-16T14:24:16.941Z,5.90
2018-03-16T14:26:45.207Z,6.93
2018-03-16T14:29:13.546Z,6.17
2018-03-16T14:31:41.828Z,3.23
2018-03-16T14:34:10.148Z,6.80
2018-03-16T14:36:38.442Z,4.07
2018-03-16T14:39:07.605Z,5.40
2018-03-16T14:41:35.879Z,3.67
2018-03-16T14:44:04.146Z,4.83
2018-03-16T14:46:32.440Z,7.40
2018-03-16T14:49:00.696Z,5.27
2018-03-16T14:51:29.003Z,8.70
2018-03-16T14:53:57.267Z,6.83
2018-03-16T14:56:25.550Z,6.07
2018-03-16T14:58:53.799Z,4.50
2018-03-16T15:01:22.088Z,5.97
2018-03-16T15:03:50.345Z,5.90
2018-03-16T15:06:19.375Z,6.10
2018-03-16T15:08:47.640Z,5.53
2018-03-16T15:11:15.919Z,6.80
2018-03-16T15:13:44.228Z,5.07
2018-03-16T15:16:12.478Z,4.83
2018-03-16T15:18:40.791Z,4.87
2018-03-16T15:21:09.052Z,6.50
2018-03-16T15:23:37.376Z,7.80
2018-03-16T15:26:05.776Z,6.97
2018-03-16T15:28:34.819Z,5.00
2018-03-16T15:31:03.234Z,5.33
2018-03-16T15:33:31.617Z,6.27
2018-03-16T15:36:00.757Z,5.13
2018-03-16T15:38:29.049Z,4.53
2018-03-16T15:40:57.341Z,4.53
2018-03-16T15:43:25.589Z,5.90
2018-03-16T15:45:53.914Z,4.23
2018-03-16T15:48:22.928Z,4.63
2018-03-16T15:50:51.235Z,3.47
2018-03-16T15:53:19.460Z,4.93
2018-03-16T15:55:47.868Z,4.13
2018-03-16T15:58:16.136Z,5.07
2018-03-16T16:00:44.468Z,4.70
2018-03-16T16:03:12.717Z,3.63
2018-03-16T16:05:41.002Z,4.47
2018-03-16T16:08:09.322Z,5.40
2018-03-16T16:10:37.650Z,4.20
2018-03-16T16:13:05.936Z,3.73
2018-03-16T16:15:34.231Z,4.87
2018-03-16T16:18:03.304Z,4.50
2018-03-16T16:20:31.581Z,5.73
2018-03-16T16:22:59.849Z,4.60
2018-03-16T16:25:28.093Z,5.93
2018-03-16T16:27:56.387Z,6.23
2018-03-16T16:30:24.660Z,7.27
2018-03-16T16:32:52.913Z,6.53
2018-03-16T16:35:21.193Z,6.33
2018-03-16T16:37:49.480Z,5.07
2018-03-16T16:40:17.766Z,6.97
2018-03-16T16:42:46.054Z,6.50
2018-03-16T16:45:14.433Z,7.43
2018-03-16T16:47:42.699Z,2.77
2018-03-16T16:50:11.158Z,4.73
2018-03-16T16:52:39.404Z,8.17
2018-03-16T16:55:07.767Z,4.43
2018-03-16T16:57:35.981Z,4.10
2018-03-16T17:00:04.280Z,7.23
2018-03-16T17:02:32.571Z,5.47
2018-03-16T17:05:00.821Z,5.40
2018-03-16T17:07:29.834Z,7.60
2018-03-16T17:09:58.141Z,6.77
2018-03-16T17:12:26.374Z,5.33
2018-03-16T17:14:54.646Z,4.87
2018-03-16T17:17:22.932Z,4.73
2018-03-16T17:19:51.230Z,3.53
2018-03-16T17:22:19.511Z,7.30
2018-03-16T17:24:47.771Z,6.50
2018-03-16T17:27:16.035Z,6.03
2018-03-16T17:29:44.324Z,3.27
2018-03-16T17:32:24.014Z,3.97
2018-03-16T17:34:40.855Z,5.47
2018-03-16T17:37:09.137Z,4.70
2018-03-16T17:39:37.472Z,5.50
2018-03-16T17:42:05.731Z,5.27
2018-03-16T17:44:34.023Z,4.87
2018-03-16T17:47:02.292Z,4.27
2018-03-16T17:49:30.542Z,5.60
2018-03-16T17:51:58.847Z,9.10
2018-03-16T17:54:27.093Z,7.10
2018-03-16T17:56:55.369Z,6.23
2018-03-16T17:59:23.634Z,8.03
2018-03-16T18:01:51.888Z,5.67
2018-03-16T18:04:20.147Z,4.33
2018-03-16T18:06:48.410Z,6.27
2018-03-16T18:09:17.474Z,6.83
2018-03-16T18:11:45.732Z,8.03
2018-03-16T18:14:14.002Z,5.07
2018-03-16T18:16:42.280Z,6.27
2018-03-16T18:19:10.532Z,6.97
2018-03-16T18:21:38.816Z,7.97
2018-03-16T18:24:07.121Z,6.03
2018-03-16T18:26:35.405Z,5.50
2018-03-16T18:29:03.681Z,6.53
2018-03-16T18:31:31.940Z,7.73
2018-03-16T18:34:00.226Z,7.27
2018-03-16T18:36:28.480Z,12.87
2018-03-16T18:38:56.769Z,7.10
2018-03-16T18:41:25.036Z,7.80
2018-03-16T18:43:53.325Z,8.03
2018-03-16T18:46:21.607Z,10.43
2018-03-16T18:48:49.870Z,7.63
2018-03-16T18:51:18.141Z,9.20
2018-03-16T18:53:46.440Z,8.57
2018-03-16T18:56:15.701Z,9.50
2018-03-16T18:58:44.119Z,5.83
2018-03-16T19:01:12.892Z,6.50
2018-03-16T19:03:41.140Z,8.00
2018-03-16T19:06:09.409Z,8.50
2018-03-16T19:08:37.708Z,9.63
2018-03-16T19:11:06.503Z,4.83
2018-03-16T19:13:34.800Z,10.07
2018-03-16T19:16:03.060Z,6.27
2018-03-16T19:18:31.339Z,7.13
2018-03-16T19:20:59.596Z,7.27
2018-03-16T19:23:27.904Z,7.40
2018-03-16T19:25:56.168Z,6.20
2018-03-16T19:28:24.429Z,6.80
2018-03-16T19:30:52.700Z,6.60
2018-03-16T19:33:20.977Z,6.27
2018-03-16T19:35:49.274Z,7.97
2018-03-16T19:38:17.537Z,10.07
2018-03-16T19:40:45.822Z,12.27
2018-03-16T19:43:14.117Z,8.47
2018-03-16T19:45:42.428Z,20.50
2018-03-16T19:48:10.717Z,21.00
2018-03-16T19:50:38.993Z,13.00
2018-03-16T19:53:07.318Z,19.23
2018-03-16T19:55:35.610Z,22.87
2018-03-16T19:58:03.872Z,15.80
2018-03-16T20:00:32.190Z,11.67
2018-03-16T20:03:01.269Z,14.63
2018-03-16T20:05:29.571Z,10.13
2018-03-16T20:07:57.934Z,10.23
2018-03-16T20:10:26.230Z,11.10
2018-03-16T20:12:55.333Z,10.80
2018-03-16T20:15:23.615Z,7.67
2018-03-16T20:17:51.912Z,8.77
2018-03-16T20:20:20.203Z,12.87
2018-03-16T20:22:48.545Z,9.13
2018-03-16T20:25:16.785Z,12.33
2018-03-16T20:27:45.136Z,18.93
2018-03-16T20:30:13.483Z,19.90
2018-03-16T20:32:41.744Z,14.23
2018-03-16T20:35:10.031Z,19.40
2018-03-16T20:37:38.360Z,13.77
2018-03-16T20:40:06.654Z,12.57
2018-03-16T20:42:35.693Z,12.17
2018-03-16T20:45:03.950Z,12.83
2018-03-16T20:47:32.265Z,13.27
2018-03-16T20:50:00.529Z,11.40
2018-03-16T20:52:28.837Z,9.37
2018-03-16T20:54:57.122Z,12.67
2018-03-16T20:57:25.380Z,20.93
2018-03-16T20:59:53.673Z,14.63
2018-03-16T21:02:22.724Z,11.70
2018-03-16T21:04:50.990Z,11.67
2018-03-16T21:07:19.316Z,12.00
2018-03-16T21:09:47.593Z,11.23
2018-03-16T21:12:15.872Z,13.07
2018-03-16T21:14:44.200Z,10.00
2018-03-16T21:17:12.472Z,13.50
2018-03-16T21:19:41.163Z,17.27
2018-03-16T21:22:09.451Z,16.73
2018-03-16T21:24:37.768Z,16.83
2018-03-16T21:27:06.040Z,15.97
2018-03-16T21:29:34.314Z,25.77
2018-03-16T21:32:02.606Z,26.33
2018-03-16T21:34:30.905Z,15.30
2018-03-16T21:36:59.242Z,13.50
2018-03-16T21:39:27.586Z,16.33
2018-03-16T21:41:55.857Z,17.70
2018-03-16T21:44:24.159Z,14.07
2018-03-16T21:46:52.483Z,19.63
2018-03-16T21:49:21.584Z,18.87
2018-03-16T21:51:49.850Z,15.90
2018-03-16T21:54:18.861Z,18.27
2018-03-16T21:56:47.147Z,18.20
2018-03-16T21:59:15.392Z,16.77
2018-03-16T22:01:43.674Z,14.40
2018-03-16T22:04:12.698Z,16.10
2018-03-16T22:06:41.005Z,12.87
2018-03-16T22:09:09.331Z,12.13
2018-03-16T22:11:37.597Z,8.73
2018-03-16T22:14:05.917Z,18.27
2018-03-16T22:16:34.180Z,13.67
2018-03-16T22:19:02.483Z,14.83
2018-03-16T22:21:30.739Z,13.97
2018-03-16T22:23:59.033Z,13.10
2018-03-16T22:26:27.307Z,10.07
2018-03-16T22:28:55.602Z,11.20
2018-03-16T22:31:23.918Z,11.20
2018-03-16T22:33:52.182Z,12.57
2018-03-16T22:36:20.431Z,11.37
2018-03-16T22:38:48.694Z,13.07
2018-03-16T22:41:16.965Z,14.77
2018-03-16T22:43:45.223Z,11.90
2018-03-16T22:46:13.484Z,11.47
2018-03-16T22:48:41.797Z,11.80
2018-03-16T22:51:10.065Z,13.47
2018-03-16T22:53:38.364Z,15.70
2018-03-16T22:56:06.643Z,11.13
2018-03-16T22:58:34.901Z,14.37
2018-03-16T23:01:03.182Z,9.77
2018-03-16T23:03:31.471Z,8.50
2018-03-16T23:05:59.732Z,8.93
2018-03-16T23:08:28.016Z,12.33
2018-03-16T23:10:56.259Z,13.83
2018-03-16T23:13:24.548Z,10.90
2018-03-16T23:15:52.807Z,14.10
2018-03-16T23:18:21.108Z,15.83
2018-03-16T23:20:49.354Z,14.80
2018-03-16T23:23:17.643Z,11.00
2018-03-16T23:25:45.950Z,14.03
2018-03-16T23:28:14.288Z,14.03
2018-03-16T23:30:42.556Z,11.57
2018-03-16T23:33:10.825Z,18.53
2018-03-16T23:35:39.131Z,21.70
2018-03-16T23:38:07.437Z,15.47
2018-03-16T23:40:35.753Z,16.03
2018-03-16T23:43:04.019Z,15.83
2018-03-16T23:45:32.297Z,16.23
2018-03-16T23:48:00.587Z,17.03
2018-03-16T23:50:28.852Z,16.70
2018-03-16T23:52:57.156Z,10.47
2018-03-16T23:55:25.461Z,11.27
2018-03-16T23:57:53.762Z,12.57
